Time;durP1;ratioP1;P1;durP2;ratioP2;P2;SDS_P1;SDS_P2;PMS_P1;PMS_P2;Temp;Humidity;BMP_temperature;BMP_pressure;BME280_temperature;BME280_humidity;BME280_pressure;Samples;Min_cycle;Max_cycle;Signal;HPM_P1;HPM_P2
2023/12/31 00:01:36;;;;;;;48.20;34.45;;;;;;;;;;5011676;28;20057;-68
2023/12/31 00:04:03;;;;;;;40.58;32.30;;;;;;;;;;5011708;28;20030;-68
2023/12/31 00:06:29;;;;;;;41.53;33.25;;;;;;;;;;5012961;28;20165;-69
2023/12/31 00:08:55;;;;;;;43.42;33.92;;;;;;;;;;4995244;28;20461;-68
2023/12/31 00:11:21;;;;;;;45.65;36.58;;;;;;;;;;5013454;28;20112;-68
2023/12/31 00:13:47;;;;;;;43.47;36.10;;;;;;;;;;5012783;28;20022;-68
2023/12/31 00:16:14;;;;;;;47.17;37.33;;;;;;;;;;5013096;28;20091;-68
2023/12/31 00:18:40;;;;;;;44.50;35.90;;;;;;;;;;5012978;28;20068;-68
2023/12/31 00:21:06;;;;;;;44.88;36.50;;;;;;;;;;5012792;28;20475;-68
2023/12/31 00:23:32;;;;;;;44.40;36.40;;;;;;;;;;5011952;28;20026;-68
2023/12/31 00:25:59;;;;;;;45.60;36.30;;;;;;;;;;5012587;28;20101;-68
2023/12/31 00:28:25;;;;;;;46.70;36.25;;;;;;;;;;5012752;28;20030;-68
2023/12/31 00:30:51;;;;;;;45.83;35.88;;;;;;;;;;5013085;28;20024;-68
2023/12/31 00:33:16;;;;;;;45.45;36.35;;;;;;;;;;5012557;28;20022;-68
2023/12/31 00:35:43;;;;;;;47.90;37.03;;;;;;;;;;5012412;28;20022;-68
2023/12/31 00:38:09;;;;;;;45.45;37.55;;;;;;;;;;5010712;28;20140;-68
2023/12/31 00:40:34;;;;;;;44.65;36.20;;;;;;;;;;5012305;28;20121;-68
2023/12/31 00:43:00;;;;;;;43.65;36.05;;;;;;;;;;5012478;28;20072;-69
2023/12/31 00:45:26;;;;;;;46.65;36.17;;;;;;;;;;5011361;28;20536;-70
2023/12/31 00:47:52;;;;;;;45.38;37.03;;;;;;;;;;5012331;28;20030;-68
2023/12/31 00:50:20;;;;;;;44.92;35.90;;;;;;;;;;5012241;28;20037;-68
2023/12/31 00:52:46;;;;;;;45.55;37.83;;;;;;;;;;5012219;28;20022;-68
2023/12/31 00:55:12;;;;;;;44.10;35.97;;;;;;;;;;5012111;28;20026;-68
2023/12/31 00:57:38;;;;;;;48.17;36.25;;;;;;;;;;5012400;28;20025;-68
2023/12/31 01:00:05;;;;;;;46.13;37.15;;;;;;;;;;5010738;28;20033;-68
2023/12/31 01:02:31;;;;;;;46.58;38.67;;;;;;;;;;5010736;28;20148;-68
2023/12/31 01:04:57;;;;;;;47.55;38.55;;;;;;;;;;5012094;28;20499;-68
2023/12/31 01:07:23;;;;;;;45.72;38.38;;;;;;;;;;5012289;28;20030;-68
2023/12/31 01:09:49;;;;;;;45.83;38.17;;;;;;;;;;5011873;28;20384;-68
2023/12/31 01:12:15;;;;;;;44.85;37.28;;;;;;;;;;5012156;28;20018;-68
2023/12/31 01:14:41;;;;;;;48.80;38.42;;;;;;;;;;5012158;28;20109;-68
2023/12/31 01:17:08;;;;;;;50.13;37.65;;;;;;;;;;5011953;28;20040;-68
2023/12/31 01:19:35;;;;;;;48.67;37.08;;;;;;;;;;5012109;28;20084;-68
2023/12/31 01:22:01;;;;;;;48.58;38.15;;;;;;;;;;5012149;28;20026;-68
2023/12/31 01:24:27;;;;;;;47.17;37.22;;;;;;;;;;5011912;28;20470;-68
2023/12/31 01:26:52;;;;;;;46.53;36.00;;;;;;;;;;5012081;28;20084;-68
2023/12/31 01:29:18;;;;;;;43.70;36.47;;;;;;;;;;5012504;28;20022;-68
2023/12/31 01:31:45;;;;;;;45.55;36.88;;;;;;;;;;5011745;28;20480;-68
2023/12/31 01:34:11;;;;;;;44.58;36.05;;;;;;;;;;5011885;28;20021;-68
2023/12/31 01:36:36;;;;;;;44.88;36.17;;;;;;;;;;5014345;28;20365;-68
2023/12/31 01:39:02;;;;;;;42.90;35.53;;;;;;;;;;5015507;28;20050;-68
2023/12/31 01:41:29;;;;;;;46.53;36.60;;;;;;;;;;5015825;28;20037;-68
2023/12/31 01:44:05;;;;;;;41.83;35.70;;;;;;;;;;5014150;28;20033;-69
2023/12/31 01:46:32;;;;;;;44.70;36.88;;;;;;;;;;5015837;28;20026;-68
2023/12/31 01:48:59;;;;;;;45.15;37.55;;;;;;;;;;5014111;28;20164;-68
2023/12/31 01:51:26;;;;;;;47.85;36.60;;;;;;;;;;5015360;28;20040;-68
2023/12/31 01:53:52;;;;;;;47.67;37.33;;;;;;;;;;5015469;28;20040;-68
2023/12/31 01:56:20;;;;;;;46.03;36.97;;;;;;;;;;5014495;28;20083;-69
2023/12/31 01:58:47;;;;;;;46.97;38.15;;;;;;;;;;5015210;28;20561;-69
2023/12/31 02:01:13;;;;;;;45.92;35.63;;;;;;;;;;5015540;28;20121;-68
2023/12/31 02:03:39;;;;;;;47.95;36.92;;;;;;;;;;5015220;28;20026;-68
2023/12/31 02:06:06;;;;;;;51.45;37.28;;;;;;;;;;5015395;28;20430;-68
2023/12/31 02:08:32;;;;;;;48.42;37.15;;;;;;;;;;5015135;28;20029;-69
2023/12/31 02:10:58;;;;;;;48.55;37.45;;;;;;;;;;5014565;28;20029;-69
2023/12/31 02:13:24;;;;;;;47.70;37.35;;;;;;;;;;5015215;28;20416;-68
2023/12/31 02:15:53;;;;;;;44.92;37.00;;;;;;;;;;5014948;28;20040;-68
2023/12/31 02:18:19;;;;;;;49.45;38.10;;;;;;;;;;5014941;28;20066;-68
2023/12/31 02:20:45;;;;;;;50.42;38.72;;;;;;;;;;5014464;28;20042;-68
2023/12/31 02:23:11;;;;;;;47.60;38.38;;;;;;;;;;5014905;28;20037;-69
2023/12/31 02:25:41;;;;;;;46.35;38.35;;;;;;;;;;5014820;28;20440;-69
2023/12/31 02:28:13;;;;;;;49.35;38.78;;;;;;;;;;5014100;28;20479;-68
2023/12/31 02:30:39;;;;;;;54.72;39.60;;;;;;;;;;5014129;28;20018;-68
2023/12/31 02:33:05;;;;;;;50.75;40.67;;;;;;;;;;5014387;28;20032;-68
2023/12/31 02:35:31;;;;;;;56.58;42.55;;;;;;;;;;5014107;28;20030;-68
2023/12/31 02:37:57;;;;;;;50.00;40.28;;;;;;;;;;5013829;28;20487;-69
2023/12/31 02:40:23;;;;;;;54.08;41.30;;;;;;;;;;5013787;28;20045;-68
2023/12/31 02:42:50;;;;;;;55.20;41.40;;;;;;;;;;5011949;28;20026;-68
2023/12/31 02:45:16;;;;;;;52.38;41.88;;;;;;;;;;5011761;28;20458;-69
2023/12/31 02:47:42;;;;;;;51.95;42.28;;;;;;;;;;5011188;28;20030;-68
2023/12/31 02:50:08;;;;;;;54.35;42.17;;;;;;;;;;5010169;28;20113;-68
2023/12/31 02:52:35;;;;;;;54.95;45.03;;;;;;;;;;5011902;28;20432;-69
2023/12/31 02:55:01;;;;;;;55.33;42.83;;;;;;;;;;5012072;28;20139;-68
2023/12/31 02:57:27;;;;;;;54.58;44.05;;;;;;;;;;5012286;28;20037;-68
2023/12/31 02:59:53;;;;;;;54.97;44.40;;;;;;;;;;5011291;28;20030;-68
2023/12/31 03:02:19;;;;;;;57.38;45.58;;;;;;;;;;5013553;28;20032;-68
2023/12/31 03:04:45;;;;;;;56.33;46.60;;;;;;;;;;5013480;28;20100;-69
2023/12/31 03:07:11;;;;;;;63.63;45.42;;;;;;;;;;5013316;28;20072;-68
2023/12/31 03:09:37;;;;;;;61.50;48.03;;;;;;;;;;5013408;28;20038;-68
2023/12/31 03:12:03;;;;;;;60.42;48.40;;;;;;;;;;5011763;28;20029;-69
2023/12/31 03:14:30;;;;;;;64.30;50.08;;;;;;;;;;5013129;28;20459;-68
2023/12/31 03:16:57;;;;;;;63.47;50.30;;;;;;;;;;5013373;28;20106;-71
2023/12/31 03:19:23;;;;;;;64.85;52.08;;;;;;;;;;5013064;28;20026;-68
2023/12/31 03:21:49;;;;;;;67.30;52.38;;;;;;;;;;5012955;28;20045;-68
2023/12/31 03:24:17;;;;;;;62.83;50.47;;;;;;;;;;5013006;28;20396;-68
2023/12/31 03:26:43;;;;;;;67.47;52.05;;;;;;;;;;5013275;28;20441;-68
2023/12/31 03:29:09;;;;;;;62.33;49.63;;;;;;;;;;5012992;28;20101;-68
2023/12/31 03:31:35;;;;;;;64.05;49.85;;;;;;;;;;5013052;28;20190;-69
2023/12/31 03:34:01;;;;;;;63.90;49.92;;;;;;;;;;5012996;28;20026;-68
2023/12/31 03:36:27;;;;;;;64.63;51.00;;;;;;;;;;5012866;28;20559;-69
2023/12/31 03:38:54;;;;;;;66.45;51.67;;;;;;;;;;5012694;28;20155;-68
2023/12/31 03:41:20;;;;;;;74.43;52.25;;;;;;;;;;5012494;28;20052;-68
2023/12/31 03:43:46;;;;;;;63.72;51.08;;;;;;;;;;5009486;28;20195;-68
2023/12/31 03:46:12;;;;;;;65.65;51.80;;;;;;;;;;5012199;28;20026;-68
2023/12/31 03:48:38;;;;;;;65.70;50.63;;;;;;;;;;5012556;28;20061;-68
2023/12/31 03:51:04;;;;;;;63.95;48.92;;;;;;;;;;5012315;28;20037;-68
2023/12/31 03:53:30;;;;;;;62.20;48.78;;;;;;;;;;5012493;28;20464;-68
2023/12/31 03:55:56;;;;;;;64.22;50.40;;;;;;;;;;5012380;28;20136;-68
2023/12/31 03:58:22;;;;;;;58.95;49.25;;;;;;;;;;5011484;28;20470;-68
2023/12/31 04:00:48;;;;;;;62.80;49.35;;;;;;;;;;5011057;28;20037;-68
2023/12/31 04:03:14;;;;;;;62.00;49.30;;;;;;;;;;5012753;28;20104;-68
2023/12/31 04:05:41;;;;;;;64.85;50.60;;;;;;;;;;5012957;28;20030;-69
2023/12/31 04:08:07;;;;;;;62.63;50.28;;;;;;;;;;5011556;28;20464;-68
2023/12/31 04:10:32;;;;;;;60.20;48.92;;;;;;;;;;5012870;28;20041;-68
2023/12/31 04:12:59;;;;;;;65.75;50.35;;;;;;;;;;5012778;28;20026;-68
2023/12/31 04:15:25;;;;;;;65.80;51.17;;;;;;;;;;5012783;28;20137;-68
2023/12/31 04:17:51;;;;;;;66.30;51.67;;;;;;;;;;5013006;28;20472;-68
2023/12/31 04:20:18;;;;;;;63.50;49.05;;;;;;;;;;5012705;28;20045;-68
2023/12/31 04:22:44;;;;;;;62.65;48.92;;;;;;;;;;5012635;28;20030;-68
2023/12/31 04:25:10;;;;;;;63.22;49.38;;;;;;;;;;5011374;28;20030;-68
2023/12/31 04:27:38;;;;;;;65.22;50.20;;;;;;;;;;5011290;28;20026;-68
2023/12/31 04:30:05;;;;;;;66.90;49.80;;;;;;;;;;5012582;28;20029;-68
2023/12/31 04:32:31;;;;;;;70.18;51.15;;;;;;;;;;5012615;28;20022;-68
2023/12/31 04:34:57;;;;;;;65.47;50.90;;;;;;;;;;5012485;28;20040;-68
2023/12/31 04:37:23;;;;;;;68.70;50.20;;;;;;;;;;5012711;28;20037;-68
2023/12/31 04:39:49;;;;;;;66.10;49.88;;;;;;;;;;5012527;28;20061;-68
2023/12/31 04:42:15;;;;;;;67.65;51.63;;;;;;;;;;5012217;28;20026;-68
2023/12/31 04:44:41;;;;;;;67.68;50.40;;;;;;;;;;5012294;28;20030;-68
2023/12/31 04:47:07;;;;;;;72.63;53.78;;;;;;;;;;5012221;28;20080;-68
2023/12/31 04:49:33;;;;;;;67.75;53.10;;;;;;;;;;5012535;28;20108;-68
2023/12/31 04:51:59;;;;;;;70.75;52.92;;;;;;;;;;5012173;28;20489;-68
2023/12/31 04:54:25;;;;;;;72.82;53.03;;;;;;;;;;5012444;28;20033;-68
2023/12/31 04:56:51;;;;;;;73.22;52.70;;;;;;;;;;5012397;28;20492;-69
2023/12/31 04:59:17;;;;;;;70.72;53.10;;;;;;;;;;5012049;28;20022;-68
2023/12/31 05:01:43;;;;;;;70.32;51.50;;;;;;;;;;5012424;28;20084;-68
2023/12/31 05:04:09;;;;;;;68.25;52.28;;;;;;;;;;5012483;28;20072;-68
2023/12/31 05:06:35;;;;;;;70.88;52.50;;;;;;;;;;5012219;28;20026;-68
2023/12/31 05:09:03;;;;;;;72.60;53.70;;;;;;;;;;5012230;28;20022;-69
2023/12/31 05:11:29;;;;;;;69.85;51.90;;;;;;;;;;5010108;28;20053;-68
2023/12/31 05:13:56;;;;;;;68.88;52.85;;;;;;;;;;5011340;28;20065;-68
2023/12/31 05:16:22;;;;;;;65.72;48.42;;;;;;;;;;5011949;28;20026;-69
2023/12/31 05:18:53;;;;;;;64.53;47.22;;;;;;;;;;5011872;28;20036;-68
2023/12/31 05:21:19;;;;;;;60.38;45.00;;;;;;;;;;5012024;28;20049;-68
2023/12/31 05:23:45;;;;;;;60.10;43.65;;;;;;;;;;5011818;28;20026;-68
2023/12/31 05:26:11;;;;;;;58.28;43.85;;;;;;;;;;5012146;28;20029;-68
2023/12/31 05:28:37;;;;;;;58.58;42.05;;;;;;;;;;5010504;28;20113;-68
2023/12/31 05:31:03;;;;;;;64.45;45.58;;;;;;;;;;5011714;28;20079;-68
2023/12/31 05:33:29;;;;;;;62.53;42.03;;;;;;;;;;5011856;28;20104;-68
2023/12/31 05:35:55;;;;;;;58.00;43.20;;;;;;;;;;5011616;28;20114;-68
2023/12/31 05:38:21;;;;;;;61.15;43.38;;;;;;;;;;5011598;28;20050;-68
2023/12/31 05:40:47;;;;;;;59.95;45.42;;;;;;;;;;5011576;28;20038;-68
2023/12/31 05:43:13;;;;;;;58.85;45.60;;;;;;;;;;5011805;28;20045;-68
2023/12/31 05:45:39;;;;;;;59.70;44.50;;;;;;;;;;5011617;28;20461;-68
2023/12/31 05:48:06;;;;;;;59.10;45.05;;;;;;;;;;5010289;28;20492;-68
2023/12/31 05:50:32;;;;;;;63.72;47.15;;;;;;;;;;5011273;28;20037;-68
2023/12/31 05:52:58;;;;;;;68.32;49.90;;;;;;;;;;5011590;28;20100;-68
2023/12/31 05:55:24;;;;;;;68.07;50.78;;;;;;;;;;5011774;28;20423;-68
2023/12/31 05:57:50;;;;;;;75.43;54.97;;;;;;;;;;5011542;28;20492;-68
2023/12/31 06:00:16;;;;;;;70.47;51.85;;;;;;;;;;5011590;28;20121;-68
2023/12/31 06:02:42;;;;;;;64.75;50.20;;;;;;;;;;5010095;28;20026;-68
2023/12/31 06:05:09;;;;;;;71.03;51.97;;;;;;;;;;5012433;28;20026;-68
2023/12/31 06:07:35;;;;;;;70.05;51.15;;;;;;;;;;5010607;28;20373;-69
2023/12/31 06:10:01;;;;;;;71.45;50.33;;;;;;;;;;5011473;28;20048;-69
2023/12/31 06:12:28;;;;;;;67.50;50.88;;;;;;;;;;5011414;28;20021;-69
2023/12/31 06:14:54;;;;;;;68.28;50.78;;;;;;;;;;5011626;28;20037;-69
2023/12/31 06:17:20;;;;;;;70.22;52.08;;;;;;;;;;5012059;28;20029;-69
2023/12/31 06:19:46;;;;;;;69.28;52.08;;;;;;;;;;5011579;28;20033;-69
2023/12/31 06:22:12;;;;;;;69.10;49.33;;;;;;;;;;5012946;28;20396;-69
2023/12/31 06:24:37;;;;;;;67.07;52.58;;;;;;;;;;4997410;28;20068;-69
2023/12/31 06:27:04;;;;;;;70.13;51.58;;;;;;;;;;5015392;28;20060;-67
2023/12/31 06:29:30;;;;;;;69.93;53.45;;;;;;;;;;5014838;28;20052;-68
2023/12/31 06:31:56;;;;;;;73.07;55.22;;;;;;;;;;5014739;28;20499;-68
2023/12/31 06:34:21;;;;;;;73.97;53.60;;;;;;;;;;5014725;28;20033;-69
2023/12/31 06:36:47;;;;;;;76.88;54.05;;;;;;;;;;5012626;28;20053;-68
2023/12/31 06:39:13;;;;;;;70.57;54.30;;;;;;;;;;5014028;28;20049;-68
2023/12/31 06:41:39;;;;;;;70.35;54.15;;;;;;;;;;5014548;28;20449;-67
2023/12/31 06:44:05;;;;;;;72.57;55.10;;;;;;;;;;5014482;28;20030;-67
2023/12/31 06:46:32;;;;;;;72.93;53.60;;;;;;;;;;5014278;28;20037;-68
2023/12/31 06:48:58;;;;;;;74.97;54.45;;;;;;;;;;5014367;28;20476;-68
2023/12/31 06:51:24;;;;;;;79.10;56.53;;;;;;;;;;5014379;28;20018;-68
2023/12/31 06:53:50;;;;;;;75.57;55.22;;;;;;;;;;5012964;28;20053;-68
2023/12/31 06:56:18;;;;;;;78.07;57.00;;;;;;;;;;5014205;28;20033;-67
2023/12/31 06:58:44;;;;;;;78.53;56.85;;;;;;;;;;5014170;28;20032;-68
2023/12/31 07:01:10;;;;;;;80.50;57.83;;;;;;;;;;5014281;28;20105;-67
2023/12/31 07:03:36;;;;;;;79.88;58.13;;;;;;;;;;5014256;28;20030;-68
2023/12/31 07:06:02;;;;;;;68.65;51.25;;;;;;;;;;5014719;28;20365;-68
2023/12/31 07:08:28;;;;;;;76.25;55.38;;;;;;;;;;5014042;28;20018;-69
2023/12/31 07:10:55;;;;;;;76.78;55.55;;;;;;;;;;5013886;28;20092;-68
2023/12/31 07:13:21;;;;;;;72.68;55.28;;;;;;;;;;5013844;28;20025;-68
2023/12/31 07:15:47;;;;;;;77.28;56.13;;;;;;;;;;5012519;28;20531;-68
2023/12/31 07:18:13;;;;;;;77.75;56.15;;;;;;;;;;5013574;28;20145;-68
2023/12/31 07:20:39;;;;;;;73.95;56.03;;;;;;;;;;5013100;28;20117;-68
2023/12/31 07:23:05;;;;;;;73.47;55.03;;;;;;;;;;5013274;28;20033;-68
2023/12/31 07:25:32;;;;;;;69.15;54.67;;;;;;;;;;5013398;28;20030;-68
2023/12/31 07:27:58;;;;;;;73.13;54.05;;;;;;;;;;5013354;28;20025;-68
2023/12/31 07:30:25;;;;;;;73.20;53.05;;;;;;;;;;5013060;28;20025;-68
2023/12/31 07:32:51;;;;;;;70.97;52.47;;;;;;;;;;5011916;28;20109;-68
2023/12/31 07:35:17;;;;;;;77.05;54.53;;;;;;;;;;5013610;28;20494;-69
2023/12/31 07:37:43;;;;;;;73.45;55.67;;;;;;;;;;5011841;28;20042;-68
2023/12/31 07:40:13;;;;;;;78.40;56.35;;;;;;;;;;5013353;28;20032;-68
2023/12/31 07:42:39;;;;;;;76.20;53.90;;;;;;;;;;5013196;28;20026;-68
2023/12/31 07:45:06;;;;;;;74.93;53.95;;;;;;;;;;5013252;28;20096;-69
2023/12/31 07:47:35;;;;;;;74.63;55.80;;;;;;;;;;5013130;28;20018;-68
2023/12/31 07:50:00;;;;;;;73.88;55.45;;;;;;;;;;5013474;28;20400;-68
2023/12/31 07:52:27;;;;;;;74.53;55.08;;;;;;;;;;5013469;28;20041;-68
2023/12/31 07:54:53;;;;;;;75.03;54.97;;;;;;;;;;5013433;28;20026;-69
2023/12/31 07:57:19;;;;;;;73.18;53.75;;;;;;;;;;5013119;28;20388;-68
2023/12/31 07:59:45;;;;;;;79.72;56.47;;;;;;;;;;5012947;28;20377;-68
2023/12/31 08:02:11;;;;;;;75.00;55.58;;;;;;;;;;5012380;28;20487;-68
2023/12/31 08:04:37;;;;;;;79.13;56.58;;;;;;;;;;5012699;28;20032;-69
2023/12/31 08:07:03;;;;;;;78.88;57.00;;;;;;;;;;5012723;28;20030;-68
2023/12/31 08:09:29;;;;;;;77.20;55.00;;;;;;;;;;5012915;28;20040;-68
2023/12/31 08:11:55;;;;;;;73.85;56.53;;;;;;;;;;5011477;28;20104;-68
2023/12/31 08:14:22;;;;;;;77.93;56.70;;;;;;;;;;5012704;28;20109;-69
2023/12/31 08:16:48;;;;;;;73.60;54.75;;;;;;;;;;5012873;28;20030;-68
2023/12/31 08:19:14;;;;;;;72.28;54.35;;;;;;;;;;5012731;28;20032;-68
2023/12/31 08:21:41;;;;;;;73.95;57.03;;;;;;;;;;5012802;28;20053;-68
2023/12/31 08:24:07;;;;;;;72.90;54.13;;;;;;;;;;5013324;28;20057;-68
2023/12/31 08:26:33;;;;;;;68.65;53.58;;;;;;;;;;5013001;28;20106;-68
2023/12/31 08:28:59;;;;;;;67.22;50.45;;;;;;;;;;5012645;28;20054;-68
2023/12/31 08:31:25;;;;;;;66.32;52.17;;;;;;;;;;5012527;28;20054;-68
2023/12/31 08:33:51;;;;;;;70.45;52.97;;;;;;;;;;5011226;28;20113;-68
2023/12/31 08:36:17;;;;;;;67.32;51.90;;;;;;;;;;5011199;28;20116;-68
2023/12/31 08:38:43;;;;;;;70.68;53.63;;;;;;;;;;5012182;28;20057;-68
2023/12/31 08:41:09;;;;;;;71.75;53.25;;;;;;;;;;5012332;28;20563;-68
2023/12/31 08:43:36;;;;;;;73.57;54.50;;;;;;;;;;5012437;28;20156;-68
2023/12/31 08:46:02;;;;;;;76.55;56.35;;;;;;;;;;5011833;28;20348;-68
2023/12/31 08:48:28;;;;;;;77.03;56.25;;;;;;;;;;5012536;28;20523;-68
2023/12/31 08:50:55;;;;;;;77.95;57.70;;;;;;;;;;5010864;28;20124;-68
2023/12/31 08:53:21;;;;;;;77.85;58.50;;;;;;;;;;5012557;28;20026;-68
2023/12/31 08:55:51;;;;;;;80.30;58.13;;;;;;;;;;5012465;28;20033;-68
2023/12/31 08:58:17;;;;;;;81.03;59.55;;;;;;;;;;5012552;28;20029;-68
2023/12/31 09:00:43;;;;;;;88.20;60.80;;;;;;;;;;5012080;28;20407;-68
2023/12/31 09:03:09;;;;;;;82.10;60.75;;;;;;;;;;5010793;28;20026;-68
2023/12/31 09:05:35;;;;;;;85.05;62.85;;;;;;;;;;5012178;28;20040;-68
2023/12/31 09:08:02;;;;;;;82.38;60.42;;;;;;;;;;5011982;28;20025;-68
2023/12/31 09:10:28;;;;;;;88.32;61.83;;;;;;;;;;5011949;28;20116;-69
2023/12/31 09:12:54;;;;;;;87.22;63.97;;;;;;;;;;5011852;28;20022;-68
2023/12/31 09:15:20;;;;;;;82.30;60.33;;;;;;;;;;5012009;28;20026;-68
2023/12/31 09:17:46;;;;;;;82.53;60.92;;;;;;;;;;5010638;28;20099;-69
2023/12/31 09:20:13;;;;;;;83.07;60.28;;;;;;;;;;5011881;28;20042;-69
2023/12/31 09:22:39;;;;;;;86.15;61.60;;;;;;;;;;5011851;28;20417;-68
2023/12/31 09:25:08;;;;;;;88.97;62.33;;;;;;;;;;5011686;28;20041;-68
2023/12/31 09:27:34;;;;;;;88.07;63.20;;;;;;;;;;5011269;28;20033;-69
2023/12/31 09:30:00;;;;;;;86.35;60.83;;;;;;;;;;5010481;28;20034;-68
2023/12/31 09:32:26;;;;;;;89.22;61.17;;;;;;;;;;5011831;28;20044;-68
2023/12/31 09:34:52;;;;;;;84.30;59.67;;;;;;;;;;5011887;28;20080;-68
2023/12/31 09:37:19;;;;;;;85.97;61.65;;;;;;;;;;5011581;28;20026;-68
2023/12/31 09:39:46;;;;;;;86.38;60.60;;;;;;;;;;5012019;28;20499;-69
2023/12/31 09:42:12;;;;;;;81.45;58.13;;;;;;;;;;5011607;28;20498;-68
2023/12/31 09:44:39;;;;;;;86.85;61.03;;;;;;;;;;5010425;28;20049;-68
2023/12/31 09:47:06;;;;;;;84.32;58.67;;;;;;;;;;5010434;28;20033;-68
2023/12/31 09:49:36;;;;;;;80.28;54.47;;;;;;;;;;5011682;28;20480;-68
2023/12/31 09:52:05;;;;;;;84.85;57.83;;;;;;;;;;5011908;28;20025;-67
2023/12/31 09:54:35;;;;;;;84.47;57.80;;;;;;;;;;5011687;28;20048;-68
2023/12/31 09:57:02;;;;;;;81.60;56.20;;;;;;;;;;5014747;28;20029;-68
2023/12/31 09:59:29;;;;;;;83.80;58.33;;;;;;;;;;5014607;28;20030;-67
2023/12/31 10:01:58;;;;;;;82.53;58.97;;;;;;;;;;5014038;28;20030;-69
2023/12/31 10:04:24;;;;;;;83.15;58.10;;;;;;;;;;5014031;28;20022;-69
2023/12/31 10:06:51;;;;;;;81.13;57.90;;;;;;;;;;5014663;28;20053;-68
2023/12/31 10:09:23;;;;;;;81.88;57.67;;;;;;;;;;5014997;28;20022;-68
2023/12/31 10:11:49;;;;;;;82.00;57.25;;;;;;;;;;5014462;28;20029;-68
2023/12/31 10:14:15;;;;;;;87.07;58.22;;;;;;;;;;5014342;28;20026;-68
2023/12/31 10:16:43;;;;;;;76.45;54.38;;;;;;;;;;5014554;28;20041;-68
2023/12/31 10:19:12;;;;;;;79.65;55.60;;;;;;;;;;5014364;28;20033;-68
2023/12/31 10:21:38;;;;;;;77.18;55.20;;;;;;;;;;5014330;28;20042;-68
2023/12/31 10:24:04;;;;;;;74.78;54.33;;;;;;;;;;5014234;28;20030;-68
2023/12/31 10:26:30;;;;;;;77.70;55.80;;;;;;;;;;5012763;28;20034;-68
2023/12/31 10:28:56;;;;;;;86.47;58.67;;;;;;;;;;5012068;28;20088;-69
2023/12/31 10:31:24;;;;;;;82.50;58.88;;;;;;;;;;5012108;28;20084;-69
2023/12/31 10:33:50;;;;;;;80.97;57.15;;;;;;;;;;5012383;28;20135;-69
2023/12/31 10:36:20;;;;;;;86.18;60.42;;;;;;;;;;5012768;28;20514;-69
2023/12/31 10:38:46;;;;;;;76.70;56.47;;;;;;;;;;5012615;28;20428;-69
2023/12/31 10:41:17;;;;;;;80.80;56.15;;;;;;;;;;5014015;28;20034;-68
2023/12/31 10:43:46;;;;;;;79.10;57.28;;;;;;;;;;5014478;28;20029;-69
2023/12/31 10:46:14;;;;;;;81.38;56.15;;;;;;;;;;5014595;28;20026;-69
2023/12/31 10:48:45;;;;;;;78.40;54.20;;;;;;;;;;5014556;28;20336;-68
2023/12/31 10:51:13;;;;;;;82.70;58.50;;;;;;;;;;5014142;28;20022;-68
2023/12/31 10:53:40;;;;;;;79.20;57.17;;;;;;;;;;5014097;28;20025;-68
2023/12/31 10:56:06;;;;;;;80.53;56.47;;;;;;;;;;5014375;28;20444;-69
2023/12/31 10:58:32;;;;;;;75.93;53.97;;;;;;;;;;5014591;28;20128;-69
2023/12/31 11:00:58;;;;;;;86.03;59.92;;;;;;;;;;5014436;28;20088;-68
2023/12/31 11:03:26;;;;;;;85.88;57.85;;;;;;;;;;5014490;28;20026;-68
2023/12/31 11:05:52;;;;;;;84.38;58.88;;;;;;;;;;5012916;28;20084;-68
2023/12/31 11:08:19;;;;;;;82.38;55.15;;;;;;;;;;5013544;28;20022;-68
2023/12/31 11:10:46;;;;;;;82.40;59.00;;;;;;;;;;5013949;28;20025;-68
2023/12/31 11:13:13;;;;;;;82.10;58.30;;;;;;;;;;5014001;28;20483;-68
2023/12/31 11:15:40;;;;;;;83.32;58.22;;;;;;;;;;5014070;28;20026;-68
2023/12/31 11:18:06;;;;;;;86.97;59.33;;;;;;;;;;5014254;28;20021;-68
2023/12/31 11:20:32;;;;;;;80.65;56.05;;;;;;;;;;5012410;28;20077;-68
2023/12/31 11:23:01;;;;;;;78.97;55.88;;;;;;;;;;5014023;28;20049;-68
2023/12/31 11:25:27;;;;;;;74.85;49.83;;;;;;;;;;5013959;28;20105;-68
2023/12/31 11:27:55;;;;;;;78.32;52.55;;;;;;;;;;5013894;28;20026;-68
2023/12/31 11:30:39;;;;;;;73.22;52.03;;;;;;;;;;5013659;28;20033;-68
2023/12/31 11:33:05;;;;;;;73.97;48.63;;;;;;;;;;5013694;28;20060;-68
2023/12/31 11:35:47;;;;;;;72.28;50.25;;;;;;;;;;5013932;28;20050;-68
2023/12/31 11:38:13;;;;;;;72.43;49.30;;;;;;;;;;5013586;28;20112;-68
2023/12/31 11:40:40;;;;;;;73.57;51.75;;;;;;;;;;5013012;28;20030;-68
2023/12/31 11:43:16;;;;;;;69.50;48.53;;;;;;;;;;5012899;28;20026;-68
2023/12/31 11:45:43;;;;;;;71.95;50.42;;;;;;;;;;5012909;28;20033;-68
2023/12/31 11:48:18;;;;;;;72.55;50.28;;;;;;;;;;5012219;28;20042;-68
2023/12/31 11:50:47;;;;;;;66.95;47.47;;;;;;;;;;5013026;28;20026;-68
2023/12/31 11:53:14;;;;;;;65.55;46.67;;;;;;;;;;5013155;28;20029;-68
2023/12/31 11:55:40;;;;;;;67.25;46.97;;;;;;;;;;5013378;28;20101;-69
2023/12/31 11:58:08;;;;;;;61.97;45.75;;;;;;;;;;5013507;28;20096;-68
2023/12/31 12:00:34;;;;;;;60.83;43.95;;;;;;;;;;5013066;28;20029;-68
2023/12/31 12:03:04;;;;;;;64.57;43.88;;;;;;;;;;5013137;28;20324;-68
2023/12/31 12:05:30;;;;;;;63.83;45.03;;;;;;;;;;5011834;28;20029;-68
2023/12/31 12:07:56;;;;;;;61.22;44.72;;;;;;;;;;5013175;28;20028;-68
2023/12/31 12:10:23;;;;;;;60.22;44.65;;;;;;;;;;5012966;28;20026;-68
2023/12/31 12:12:53;;;;;;;55.30;41.45;;;;;;;;;;5011609;28;20021;-68
2023/12/31 12:15:19;;;;;;;61.20;42.85;;;;;;;;;;5012241;28;20049;-68
2023/12/31 12:17:45;;;;;;;56.10;39.58;;;;;;;;;;5012414;28;20021;-68
2023/12/31 12:20:11;;;;;;;56.05;40.25;;;;;;;;;;5011818;28;20109;-68
2023/12/31 12:22:38;;;;;;;55.10;41.75;;;;;;;;;;5013518;28;20029;-68
2023/12/31 12:25:04;;;;;;;55.55;41.25;;;;;;;;;;5012938;28;20022;-68
2023/12/31 12:27:30;;;;;;;52.95;39.92;;;;;;;;;;5011350;28;20052;-68
2023/12/31 12:29:57;;;;;;;56.83;41.63;;;;;;;;;;5011451;28;20471;-68
2023/12/31 12:32:25;;;;;;;52.83;40.50;;;;;;;;;;5012793;28;20053;-68
2023/12/31 12:34:51;;;;;;;55.05;41.45;;;;;;;;;;5012588;28;20026;-68
2023/12/31 12:37:17;;;;;;;53.38;40.40;;;;;;;;;;5012661;28;20096;-67
2023/12/31 12:39:43;;;;;;;58.45;40.80;;;;;;;;;;5012729;28;20030;-67
2023/12/31 12:42:09;;;;;;;51.67;38.15;;;;;;;;;;5012640;28;20447;-68
2023/12/31 12:44:36;;;;;;;57.60;40.15;;;;;;;;;;5011234;28;20065;-68
2023/12/31 12:47:03;;;;;;;50.85;37.35;;;;;;;;;;5012616;28;20324;-68
2023/12/31 12:49:29;;;;;;;48.97;36.60;;;;;;;;;;5011109;28;20057;-68
2023/12/31 12:51:55;;;;;;;57.80;40.97;;;;;;;;;;5012328;28;20124;-67
2023/12/31 12:54:21;;;;;;;51.40;39.20;;;;;;;;;;5012808;28;20195;-68
2023/12/31 12:56:47;;;;;;;57.38;41.25;;;;;;;;;;5012583;28;20030;-68
2023/12/31 12:59:13;;;;;;;56.45;40.25;;;;;;;;;;5012156;28;20076;-68
2023/12/31 13:01:39;;;;;;;56.15;39.10;;;;;;;;;;5012228;28;20049;-68
2023/12/31 13:04:10;;;;;;;55.80;40.25;;;;;;;;;;5012289;28;20093;-68
2023/12/31 13:06:45;;;;;;;57.80;40.85;;;;;;;;;;5012385;28;20530;-68
2023/12/31 13:09:11;;;;;;;;;;;;;;;;;;5012721;28;20087;-68
2023/12/31 13:11:37;;;;;;;61.38;43.03;;;;;;;;;;5010703;28;20011;-68
2023/12/31 13:14:04;;;;;;;53.03;41.50;;;;;;;;;;5012198;28;20029;-68
2023/12/31 13:16:30;;;;;;;50.13;39.33;;;;;;;;;;5012805;28;20064;-68
2023/12/31 13:18:56;;;;;;;55.95;39.42;;;;;;;;;;5010510;28;20105;-68
2023/12/31 13:21:22;;;;;;;49.38;37.45;;;;;;;;;;5011432;28;20045;-68
2023/12/31 13:23:48;;;;;;;50.38;38.55;;;;;;;;;;5012097;28;20075;-68
2023/12/31 13:26:14;;;;;;;50.47;37.88;;;;;;;;;;5012254;28;20352;-67
2023/12/31 13:28:40;;;;;;;48.60;36.90;;;;;;;;;;5009438;28;20026;-67
2023/12/31 13:31:06;;;;;;;51.67;36.70;;;;;;;;;;5013230;28;20033;-68
2023/12/31 13:33:32;;;;;;;47.92;35.80;;;;;;;;;;5014464;28;20022;-68
2023/12/31 13:35:58;;;;;;;43.05;34.97;;;;;;;;;;5015745;28;20021;-67
2023/12/31 13:38:24;;;;;;;47.65;36.10;;;;;;;;;;5015716;28;20042;-68
2023/12/31 13:40:51;;;;;;;45.42;34.30;;;;;;;;;;5015669;28;20030;-68
2023/12/31 13:43:17;;;;;;;45.38;35.80;;;;;;;;;;5015455;28;20480;-69
2023/12/31 13:45:44;;;;;;;46.17;34.22;;;;;;;;;;5015483;28;20030;-68
2023/12/31 13:48:11;;;;;;;44.97;34.88;;;;;;;;;;5013987;28;20017;-68
2023/12/31 13:50:37;;;;;;;43.53;33.50;;;;;;;;;;5015447;28;20109;-67
2023/12/31 13:53:03;;;;;;;44.75;33.70;;;;;;;;;;5015535;28;20046;-68
2023/12/31 13:55:29;;;;;;;46.65;36.28;;;;;;;;;;5015428;28;20081;-68
2023/12/31 13:57:55;;;;;;;46.40;36.30;;;;;;;;;;5015141;28;20455;-68
2023/12/31 14:00:21;;;;;;;45.60;35.17;;;;;;;;;;5015290;28;20058;-68
2023/12/31 14:02:49;;;;;;;49.50;37.05;;;;;;;;;;5028378;28;20028;-68
2023/12/31 14:05:15;;;;;;;54.13;40.00;;;;;;;;;;5016011;28;20018;-68
2023/12/31 14:07:41;;;;;;;57.83;40.22;;;;;;;;;;5015286;28;20018;-68
2023/12/31 14:10:08;;;;;;;52.67;40.17;;;;;;;;;;5014867;28;20018;-68
2023/12/31 14:12:34;;;;;;;56.75;40.38;;;;;;;;;;5015104;28;20084;-68
2023/12/31 14:18:04;;;;;;;56.80;40.60;;;;;;;;;;5010884;28;20554;-69